Time;durP1;ratioP1;P1;durP2;ratioP2;P2;SDS_P1;SDS_P2;PMS_P1;PMS_P2;Temp;Humidity;BMP_temperature;BMP_pressure;BME280_temperature;BME280_humidity;BME280_pressure;Samples;Min_cycle;Max_cycle;Signal;HPM_P1;HPM_P2
2021/12/01 00:02:08;;;;;;;2.92;2.08;;;5.60;99.90;;;;;;5032490;28;20033;-73
2021/12/01 00:04:34;;;;;;;3.40;2.17;;;5.40;99.90;;;;;;5032011;28;20033;-71
2021/12/01 00:07:01;;;;;;;4.20;3.10;;;5.30;99.90;;;;;;5032280;28;20037;-71
2021/12/01 00:09:27;;;;;;;3.67;1.40;;;5.20;99.90;;;;;;5032378;28;20033;-71
2021/12/01 00:11:53;;;;;;;2.70;2.45;;;5.10;99.90;;;;;;5031967;28;20030;-71
2021/12/01 00:14:20;;;;;;;4.13;2.25;;;5.10;99.90;;;;;;5032227;28;20034;-71
2021/12/01 00:16:47;;;;;;;2.22;1.75;;;5.00;99.90;;;;;;5030976;28;20056;-74
2021/12/01 00:19:13;;;;;;;2.15;1.60;;;5.00;99.90;;;;;;5032059;28;20446;-72
2021/12/01 00:21:39;;;;;;;1.70;1.60;;;5.00;99.90;;;;;;5031665;28;20474;-72
2021/12/01 00:24:05;;;;;;;4.15;2.30;;;5.00;99.90;;;;;;5031590;28;20067;-72
2021/12/01 00:26:33;;;;;;;2.90;2.05;;;5.00;99.90;;;;;;5031752;28;20034;-72
2021/12/01 00:28:59;;;;;;;3.10;1.90;;;4.90;99.90;;;;;;5032276;28;20378;-72
2021/12/01 00:31:25;;;;;;;2.40;2.20;;;4.80;99.90;;;;;;5032055;28;20089;-71
2021/12/01 00:33:51;;;;;;;4.20;2.90;;;4.80;99.90;;;;;;5030925;28;20033;-72
2021/12/01 00:36:18;;;;;;;3.75;3.10;;;4.70;99.90;;;;;;5012831;28;20046;-71
2021/12/01 00:38:44;;;;;;;7.60;2.83;;;4.70;99.90;;;;;;5031164;28;20053;-75
2021/12/01 00:41:12;;;;;;;4.28;3.42;;;4.70;99.90;;;;;;5031648;28;20490;-74
2021/12/01 00:43:41;;;;;;;3.45;2.83;;;4.70;99.90;;;;;;5031251;28;20025;-71
2021/12/01 00:46:22;;;;;;;2.53;2.33;;;4.70;99.90;;;;;;5032118;28;20493;-70
2021/12/01 00:48:49;;;;;;;2.45;2.17;;;4.80;99.90;;;;;;5031306;28;20045;-71
2021/12/01 00:51:16;;;;;;;2.53;2.03;;;4.80;99.90;;;;;;5014073;28;20037;-71
2021/12/01 00:53:43;;;;;;;3.03;2.45;;;4.80;99.90;;;;;;5031981;28;20411;-72
2021/12/01 00:56:10;;;;;;;2.75;2.38;;;4.90;99.90;;;;;;5031672;28;20029;-72
2021/12/01 00:58:36;;;;;;;2.30;2.00;;;4.90;99.90;;;;;;5031150;28;20471;-71
2021/12/01 01:01:03;;;;;;;4.55;2.35;;;4.80;99.90;;;;;;5031288;28;20042;-71
2021/12/01 01:03:31;;;;;;;2.13;1.70;;;4.90;99.90;;;;;;5031369;28;20032;-71
2021/12/01 01:05:58;;;;;;;1.73;1.52;;;4.90;99.90;;;;;;5030781;28;20064;-71
2021/12/01 01:08:24;;;;;;;2.17;1.80;;;4.90;99.90;;;;;;5031402;28;20029;-71
2021/12/01 01:16:24;;;;;;;2.35;1.85;;;4.80;99.90;;;;;;5031590;28;20041;-70
2021/12/01 01:19:00;;;;;;;12.32;3.17;;;4.80;99.90;;;;;;5030334;28;20030;-71
2021/12/01 01:21:31;;;;;;;3.03;2.35;;;4.80;99.90;;;;;;5030941;28;20041;-71
2021/12/01 01:23:57;;;;;;;;;;;4.80;99.90;;;;;;5031324;28;20033;-70
2021/12/01 01:26:25;;;;;;;3.85;3.55;;;4.80;99.90;;;;;;5031764;28;19973;-71
2021/12/01 01:28:52;;;;;;;4.57;3.78;;;4.70;99.90;;;;;;5013132;28;20041;-69
2021/12/01 01:31:19;;;;;;;7.75;3.97;;;4.70;99.90;;;;;;5031480;28;20044;-70
2021/12/01 01:33:46;;;;;;;4.50;4.07;;;4.70;99.90;;;;;;5033087;28;20100;-70
2021/12/01 01:36:13;;;;;;;6.40;3.60;;;4.70;99.90;;;;;;5034842;28;20025;-70
2021/12/01 01:38:40;;;;;;;5.25;3.97;;;4.70;99.90;;;;;;5034195;28;20038;-69
2021/12/01 01:41:09;;;;;;;3.97;3.60;;;4.70;99.90;;;;;;5034300;28;20470;-68
2021/12/01 01:43:37;;;;;;;5.82;5.32;;;4.70;99.90;;;;;;5034075;28;20037;-68
2021/12/01 01:46:04;;;;;;;4.35;4.03;;;4.60;99.90;;;;;;5034916;28;20041;-69
2021/12/01 01:48:32;;;;;;;5.10;4.60;;;4.60;99.90;;;;;;5035029;28;20140;-69
2021/12/01 01:51:02;;;;;;;5.18;4.70;;;4.60;99.90;;;;;;5033697;28;20033;-69
2021/12/01 01:53:30;;;;;;;4.93;4.53;;;4.60;99.90;;;;;;5035074;28;20060;-69
2021/12/01 01:56:01;;;;;;;4.80;4.32;;;4.60;99.90;;;;;;5032903;28;20208;-69
2021/12/01 01:58:29;;;;;;;5.20;4.80;;;4.60;99.90;;;;;;5034819;28;20056;-69
2021/12/01 02:01:08;;;;;;;8.55;3.95;;;4.60;99.90;;;;;;5034156;28;20045;-69
2021/12/01 02:03:45;;;;;;;4.90;4.50;;;4.60;99.90;;;;;;5034637;28;20048;-69
2021/12/01 02:06:14;;;;;;;16.13;14.25;;;4.60;99.90;;;;;;5033694;28;20477;-68
2021/12/01 02:08:43;;;;;;;4.32;3.92;;;4.60;99.90;;;;;;5033295;28;20478;-68
2021/12/01 02:11:11;;;;;;;10.35;7.18;;;4.60;99.90;;;;;;5016576;28;20041;-68
2021/12/01 02:13:40;;;;;;;28.85;20.75;;;4.60;99.90;;;;;;5034186;28;20041;-69
2021/12/01 02:16:07;;;;;;;26.35;23.50;;;4.60;99.90;;;;;;5034214;28;20454;-69
2021/12/01 02:18:33;;;;;;;14.32;12.00;;;4.60;99.90;;;;;;5034149;28;20075;-70
2021/12/01 02:21:11;;;;;;;24.65;20.38;;;4.60;99.90;;;;;;5033124;28;20470;-69
2021/12/01 02:23:41;;;;;;;16.48;13.55;;;4.60;99.90;;;;;;5034471;28;20037;-69
2021/12/01 02:26:09;;;;;;;20.77;16.60;;;4.60;99.90;;;;;;5034778;28;20029;-70
2021/12/01 02:28:36;;;;;;;16.75;13.05;;;4.60;99.90;;;;;;5033721;28;20044;-70
2021/12/01 02:31:03;;;;;;;14.88;11.68;;;4.60;99.90;;;;;;5032936;28;20037;-69
2021/12/01 02:33:30;;;;;;;12.27;11.07;;;4.60;99.90;;;;;;5034105;28;20025;-69
2021/12/01 02:35:56;;;;;;;10.80;9.10;;;4.60;99.90;;;;;;5033339;28;20521;-73
2021/12/01 02:38:24;;;;;;;29.30;26.17;;;4.60;99.90;;;;;;5035886;28;20041;-72
2021/12/01 02:40:50;;;;;;;17.20;15.60;;;4.60;99.90;;;;;;5015261;28;20033;-72
2021/12/01 02:43:17;;;;;;;13.32;9.77;;;4.60;99.90;;;;;;5016098;28;20048;-72
2021/12/01 02:45:44;;;;;;;22.38;19.40;;;4.60;99.90;;;;;;5031747;28;20049;-72
2021/12/01 02:48:13;;;;;;;5.75;5.22;;;4.60;99.90;;;;;;5034024;28;20033;-71
2021/12/01 02:50:42;;;;;;;10.05;9.10;;;4.60;99.90;;;;;;5033741;28;20036;-71
2021/12/01 02:53:09;;;;;;;13.80;12.02;;;4.60;99.90;;;;;;5033677;28;20060;-72
2021/12/01 02:55:41;;;;;;;11.35;10.25;;;4.60;99.90;;;;;;5033543;28;20029;-71
2021/12/01 02:58:08;;;;;;;8.82;7.95;;;4.60;99.90;;;;;;5033916;28;20025;-71
2021/12/01 03:00:34;;;;;;;12.93;7.80;;;4.60;99.90;;;;;;5033584;28;20057;-71
2021/12/01 03:03:01;;;;;;;12.63;11.07;;;4.70;99.90;;;;;;5033327;28;20736;-72
2021/12/01 03:05:28;;;;;;;7.68;6.95;;;4.60;99.90;;;;;;5032775;28;20033;-72
2021/12/01 03:07:55;;;;;;;11.20;10.27;;;4.70;99.90;;;;;;5032828;28;20036;-72
2021/12/01 03:10:21;;;;;;;8.05;7.07;;;4.70;99.90;;;;;;5032787;28;20391;-70
2021/12/01 03:12:48;;;;;;;12.75;11.52;;;4.70;99.90;;;;;;5032782;28;20044;-71
2021/12/01 03:15:17;;;;;;;11.07;10.00;;;4.70;99.90;;;;;;5033081;28;20463;-70
2021/12/01 03:17:43;;;;;;;8.07;7.38;;;4.70;99.90;;;;;;5032610;28;20025;-71
2021/12/01 03:20:12;;;;;;;14.07;12.55;;;4.70;99.90;;;;;;5032855;28;20030;-70
2021/12/01 03:22:38;;;;;;;7.78;7.13;;;4.70;99.90;;;;;;5032970;28;20378;-70
2021/12/01 03:25:10;;;;;;;34.95;31.67;;;4.70;99.90;;;;;;5032168;28;20030;-71
2021/12/01 03:27:36;;;;;;;15.85;14.18;;;4.70;99.90;;;;;;5032400;28;20044;-71
2021/12/01 03:30:05;;;;;;;19.20;15.52;;;4.70;99.90;;;;;;5033193;28;20545;-71
2021/12/01 03:32:32;;;;;;;6.72;6.05;;;4.80;99.90;;;;;;5031851;28;20053;-71
2021/12/01 03:34:58;;;;;;;9.30;8.32;;;4.70;99.90;;;;;;5032014;28;20044;-71
2021/12/01 03:37:24;;;;;;;10.60;9.70;;;4.80;99.90;;;;;;5032838;28;20355;-70
2021/12/01 03:39:50;;;;;;;20.15;16.88;;;4.80;99.90;;;;;;5031747;28;20036;-70
2021/12/01 03:42:17;;;;;;;10.00;8.98;;;4.80;99.90;;;;;;5031804;28;20046;-74
2021/12/01 03:44:43;;;;;;;16.25;13.23;;;4.80;99.90;;;;;;5032464;28;20455;-73
2021/12/01 03:47:09;;;;;;;24.40;21.92;;;4.90;99.90;;;;;;5032646;28;20033;-70
2021/12/01 03:49:35;;;;;;;10.10;7.85;;;4.90;99.90;;;;;;5032169;28;20072;-70
2021/12/01 03:52:02;;;;;;;19.00;17.10;;;4.90;99.90;;;;;;5031631;28;20045;-69
2021/12/01 03:54:28;;;;;;;13.55;12.32;;;4.90;99.90;;;;;;5014691;28;20037;-70
2021/12/01 03:56:54;;;;;;;11.15;7.50;;;5.00;99.90;;;;;;5031251;28;20032;-73
2021/12/01 03:59:21;;;;;;;28.73;25.70;;;5.00;99.90;;;;;;5021359;28;20036;-73
2021/12/01 04:01:47;;;;;;;9.52;6.65;;;5.10;99.90;;;;;;5042497;28;20038;-73
2021/12/01 04:04:13;;;;;;;9.30;8.23;;;5.10;99.90;;;;;;5042859;28;20136;-72
2021/12/01 04:06:39;;;;;;;5.90;4.32;;;5.20;99.90;;;;;;5040301;28;20043;-72
2021/12/01 04:09:05;;;;;;;20.77;14.55;;;5.20;99.90;;;;;;5035663;28;20053;-71
2021/12/01 04:11:32;;;;;;;4.55;4.15;;;5.30;99.90;;;;;;5032886;28;20056;-72
2021/12/01 04:13:58;;;;;;;5.90;5.07;;;5.20;99.90;;;;;;5031694;28;20037;-72
2021/12/01 04:16:25;;;;;;;10.60;4.78;;;5.20;99.90;;;;;;5032471;28;20037;-72
2021/12/01 04:18:51;;;;;;;7.13;4.60;;;5.20;99.90;;;;;;5013692;28;20059;-73
2021/12/01 04:21:20;;;;;;;4.28;3.88;;;5.20;99.90;;;;;;5031667;28;20044;-72
2021/12/01 04:23:47;;;;;;;4.72;4.30;;;5.20;99.90;;;;;;5032512;28;20390;-73
2021/12/01 04:26:18;;;;;;;3.65;3.35;;;5.10;99.90;;;;;;5031726;28;20038;-70
2021/12/01 04:28:44;;;;;;;6.38;3.97;;;5.20;99.90;;;;;;5032488;28;20056;-72
2021/12/01 04:31:10;;;;;;;3.65;3.00;;;5.20;99.90;;;;;;5031453;28;20033;-71
2021/12/01 04:33:36;;;;;;;4.75;3.78;;;5.20;99.90;;;;;;5031940;28;20033;-72
2021/12/01 04:36:03;;;;;;;3.40;2.88;;;5.20;99.90;;;;;;5031561;28;20041;-71
2021/12/01 04:38:29;;;;;;;5.50;3.08;;;5.10;99.90;;;;;;5032264;28;20044;-73
2021/12/01 04:40:55;;;;;;;4.85;3.72;;;5.20;99.90;;;;;;5031282;28;20045;-72
2021/12/01 04:43:21;;;;;;;3.95;3.60;;;5.10;99.90;;;;;;5032159;28;20478;-72
2021/12/01 04:45:52;;;;;;;3.67;3.30;;;5.10;99.90;;;;;;5013882;28;20049;-72
2021/12/01 04:48:18;;;;;;;4.53;3.38;;;5.10;99.90;;;;;;5032305;28;20033;-71
2021/12/01 04:50:45;;;;;;;5.43;4.20;;;5.10;99.90;;;;;;5031964;28;20033;-72
2021/12/01 04:53:11;;;;;;;3.03;2.58;;;5.10;99.90;;;;;;5031721;28;20462;-72
2021/12/01 04:55:38;;;;;;;4.45;4.05;;;5.00;99.90;;;;;;5031699;28;20041;-71
2021/12/01 04:58:05;;;;;;;5.32;4.90;;;5.00;99.90;;;;;;5031497;28;20036;-72
2021/12/01 05:00:34;;;;;;;7.30;4.45;;;5.00;99.90;;;;;;5032286;28;20025;-71
2021/12/01 05:03:00;;;;;;;7.55;4.50;;;5.00;99.90;;;;;;5031455;28;20045;-74
2021/12/01 05:05:26;;;;;;;11.80;4.00;;;5.00;99.90;;;;;;5031790;28;20446;-72
2021/12/01 05:07:53;;;;;;;3.80;3.38;;;4.90;99.90;;;;;;5032151;28;20382;-73
2021/12/01 05:10:19;;;;;;;4.05;3.65;;;5.00;99.90;;;;;;5035687;28;20471;-72
2021/12/01 05:12:46;;;;;;;4.47;3.78;;;5.00;99.90;;;;;;5035417;28;20037;-71
2021/12/01 05:15:12;;;;;;;6.50;3.58;;;5.00;99.90;;;;;;5037464;28;20387;-71
2021/12/01 05:17:38;;;;;;;3.50;3.20;;;5.10;99.90;;;;;;5036889;28;20363;-71
2021/12/01 05:20:06;;;;;;;3.63;2.60;;;5.10;99.90;;;;;;5017482;28;20463;-72
2021/12/01 05:22:33;;;;;;;5.10;3.40;;;5.10;99.90;;;;;;5035798;28;20474;-71
2021/12/01 05:24:59;;;;;;;3.47;2.90;;;5.00;99.90;;;;;;5034057;28;20033;-73
2021/12/01 05:27:26;;;;;;;3.17;2.58;;;5.10;99.90;;;;;;5034868;28;20044;-73
2021/12/01 05:29:52;;;;;;;3.00;2.45;;;5.10;99.90;;;;;;5034291;28;20036;-72
2021/12/01 05:32:20;;;;;;;5.50;2.45;;;5.10;99.90;;;;;;5033715;28;20057;-72
2021/12/01 05:34:46;;;;;;;6.95;2.45;;;5.10;99.90;;;;;;5035469;28;20509;-73
2021/12/01 05:37:12;;;;;;;9.10;2.40;;;5.20;99.90;;;;;;5016937;28;20497;-73
2021/12/01 05:39:44;;;;;;;2.67;2.47;;;5.10;99.90;;;;;;5030022;28;20542;-73
2021/12/01 05:42:16;;;;;;;3.22;2.50;;;5.20;99.90;;;;;;5053069;28;20412;-72
2021/12/01 05:44:44;;;;;;;1.92;1.60;;;5.20;99.90;;;;;;5036267;28;20048;-73
2021/12/01 05:47:11;;;;;;;3.03;2.40;;;5.30;99.90;;;;;;5053905;28;20258;-73
2021/12/01 05:49:42;;;;;;;3.65;2.15;;;5.30;99.90;;;;;;5035614;28;20041;-72
2021/12/01 05:52:09;;;;;;;2.95;1.88;;;5.40;99.90;;;;;;5054008;28;20047;-71
2021/12/01 05:54:36;;;;;;;2.33;1.73;;;5.60;99.90;;;;;;5054659;28;20052;-69
2021/12/01 05:57:03;;;;;;;4.70;2.60;;;5.70;99.90;;;;;;5052882;28;20041;-71
2021/12/01 05:59:29;;;;;;;3.17;1.88;;;5.70;99.90;;;;;;5037091;28;20036;-70
2021/12/01 06:01:55;;;;;;;2.30;1.73;;;5.80;99.90;;;;;;5053569;28;20458;-72
2021/12/01 06:04:25;;;;;;;3.83;2.38;;;5.90;99.90;;;;;;5053653;28;20033;-70
2021/12/01 06:06:52;;;;;;;3.63;2.03;;;6.00;99.90;;;;;;5055142;28;20029;-71
2021/12/01 06:09:18;;;;;;;4.03;1.63;;;5.90;99.90;;;;;;5053298;28;20028;-72
2021/12/01 06:11:47;;;;;;;1.52;1.42;;;6.00;99.90;;;;;;5053951;28;20033;-72
2021/12/01 06:14:16;;;;;;;6.15;2.13;;;6.10;99.90;;;;;;5049541;28;20092;-72
2021/12/01 06:16:43;;;;;;;3.38;2.20;;;6.10;99.90;;;;;;5047263;28;20666;-72
2021/12/01 06:19:10;;;;;;;1.50;1.38;;;6.10;99.90;;;;;;5040173;28;20025;-72
2021/12/01 06:21:36;;;;;;;2.90;2.20;;;6.10;99.90;;;;;;5049692;28;20044;-71
2021/12/01 06:24:02;;;;;;;2.72;1.63;;;6.20;99.90;;;;;;5053970;28;20041;-72
2021/12/01 06:26:29;;;;;;;6.55;2.05;;;6.10;99.90;;;;;;5053854;28;20040;-72
2021/12/01 06:28:55;;;;;;;2.92;1.60;;;6.20;99.90;;;;;;5035708;28;20040;-72
2021/12/01 06:31:21;;;;;;;3.95;1.83;;;6.20;99.90;;;;;;5053629;28;20402;-70
2021/12/01 06:33:48;;;;;;;2.88;1.88;;;6.20;99.90;;;;;;5054001;28;20124;-73
2021/12/01 06:36:14;;;;;;;1.60;1.15;;;6.20;99.90;;;;;;5054205;28;20044;-73
2021/12/01 06:38:41;;;;;;;2.05;1.17;;;6.20;99.90;;;;;;5053226;28;20083;-73
2021/12/01 06:41:09;;;;;;;2.35;1.35;;;6.20;99.90;;;;;;5053015;28;20071;-73
2021/12/01 06:43:35;;;;;;;1.52;0.90;;;6.10;99.90;;;;;;5053464;28;20029;-71
2021/12/01 06:46:01;;;;;;;2.20;1.05;;;6.10;99.90;;;;;;5052850;28;20029;-72
2021/12/01 06:48:27;;;;;;;1.52;0.90;;;6.00;99.90;;;;;;5053245;28;20035;-71
2021/12/01 06:50:54;;;;;;;2.83;1.30;;;5.90;99.90;;;;;;5052278;28;20029;-71
2021/12/01 06:53:20;;;;;;;2.42;1.08;;;6.00;99.90;;;;;;5053626;28;20040;-71
2021/12/01 06:55:46;;;;;;;2.42;0.90;;;5.90;99.90;;;;;;5053505;28;20032;-72
2021/12/01 06:58:13;;;;;;;1.98;1.08;;;5.90;99.90;;;;;;5052973;28;20029;-71
2021/12/01 07:00:39;;;;;;;2.25;1.25;;;5.90;99.90;;;;;;5053182;28;20029;-71
2021/12/01 07:03:05;;;;;;;0.98;0.88;;;5.80;99.90;;;;;;5052572;28;20051;-71
2021/12/01 07:05:32;;;;;;;2.22;1.13;;;5.80;99.90;;;;;;5053476;28;20477;-71
2021/12/01 07:07:58;;;;;;;1.67;1.05;;;5.80;99.90;;;;;;5052811;28;20036;-71
2021/12/01 07:10:24;;;;;;;3.13;1.15;;;5.80;99.90;;;;;;5052787;28;20028;-71
2021/12/01 07:12:51;;;;;;;2.03;0.98;;;5.80;99.90;;;;;;5050525;28;20037;-71
2021/12/01 07:15:18;;;;;;;2.63;1.13;;;5.80;99.90;;;;;;5044299;28;20477;-71
2021/12/01 07:17:44;;;;;;;1.50;0.93;;;5.80;99.90;;;;;;5053097;28;20462;-71
2021/12/01 07:20:11;;;;;;;1.63;1.30;;;5.90;99.90;;;;;;5052456;28;20052;-71
2021/12/01 07:22:38;;;;;;;1.90;1.30;;;5.90;99.90;;;;;;5052675;28;20051;-75
2021/12/01 07:25:05;;;;;;;1.55;1.35;;;6.00;99.90;;;;;;5052238;28;20033;-75
2021/12/01 07:27:31;;;;;;;1.50;1.13;;;6.00;99.90;;;;;;5053114;28;20025;-75
2021/12/01 07:29:58;;;;;;;2.70;1.60;;;6.10;99.90;;;;;;5052372;28;20033;-75
2021/12/01 07:32:24;;;;;;;1.42;1.10;;;6.10;99.90;;;;;;5052686;28;20049;-75
2021/12/01 07:34:51;;;;;;;2.40;1.13;;;6.10;99.90;;;;;;5052789;28;20033;-76
2021/12/01 07:37:18;;;;;;;3.55;0.95;;;6.10;99.90;;;;;;5052408;28;20052;-75
2021/12/01 07:39:46;;;;;;;1.30;1.02;;;6.10;99.90;;;;;;5052746;28;20055;-75
2021/12/01 07:42:14;;;;;;;1.00;0.90;;;6.10;99.90;;;;;;5033976;28;20049;-75
2021/12/01 07:44:40;;;;;;;1.17;0.93;;;6.10;99.90;;;;;;5053970;28;20032;-75
2021/12/01 07:47:08;;;;;;;1.05;0.90;;;6.10;99.90;;;;;;5052491;28;20033;-76
2021/12/01 07:49:35;;;;;;;1.75;1.10;;;6.10;99.90;;;;;;5052941;28;20032;-75
2021/12/01 07:52:04;;;;;;;1.80;1.50;;;6.10;99.90;;;;;;5052185;28;20041;-75
2021/12/01 07:54:30;;;;;;;2.60;0.98;;;6.10;99.90;;;;;;5055606;28;20040;-75
2021/12/01 07:56:57;;;;;;;1.52;0.95;;;6.10;99.90;;;;;;5052124;28;20029;-76
2021/12/01 07:59:23;;;;;;;1.25;1.00;;;6.10;99.90;;;;;;5052290;28;20021;-76
2021/12/01 08:01:50;;;;;;;1.58;1.38;;;6.10;99.90;;;;;;5051156;28;20056;-75
2021/12/01 08:04:16;;;;;;;1.98;1.13;;;6.10;99.90;;;;;;5051894;28;20483;-75
2021/12/01 08:06:43;;;;;;;2.50;1.17;;;6.10;99.90;;;;;;5051778;28;20068;-76
2021/12/01 08:09:10;;;;;;;1.45;0.90;;;6.10;99.90;;;;;;5052604;28;20104;-75
2021/12/01 08:11:40;;;;;;;1.13;0.80;;;6.10;99.90;;;;;;5052828;28;20431;-75
2021/12/01 08:14:07;;;;;;;1.23;0.90;;;6.10;99.90;;;;;;5051770;28;20389;-76
2021/12/01 08:16:34;;;;;;;1.15;0.80;;;6.10;99.90;;;;;;5053228;28;20054;-76
2021/12/01 08:19:01;;;;;;;1.65;1.00;;;6.10;99.90;;;;;;5051949;28;20047;-76
2021/12/01 08:21:27;;;;;;;1.63;0.90;;;6.10;99.90;;;;;;5052740;28;20037;-75
2021/12/01 08:23:53;;;;;;;1.65;0.88;;;6.10;99.90;;;;;;5052582;28;20040;-75
2021/12/01 08:26:21;;;;;;;1.50;0.70;;;6.10;99.90;;;;;;5054064;28;20036;-77
2021/12/01 08:28:48;;;;;;;1.52;0.95;;;6.10;99.90;;;;;;5062730;28;20037;-77
2021/12/01 08:31:16;;;;;;;0.90;0.65;;;6.10;99.90;;;;;;5065735;28;20033;-75
2021/12/01 08:33:44;;;;;;;0.90;0.57;;;6.20;99.90;;;;;;5051204;28;20045;-75
2021/12/01 08:36:10;;;;;;;0.70;0.55;;;6.20;99.90;;;;;;5056207;28;20051;-76
2021/12/01 08:38:38;;;;;;;1.77;0.93;;;6.20;99.90;;;;;;5053868;28;20032;-76
2021/12/01 08:41:05;;;;;;;2.25;1.00;;;6.20;99.90;;;;;;5033988;28;20048;-76
2021/12/01 08:43:33;;;;;;;2.53;0.88;;;6.20;99.90;;;;;;5055932;28;20029;-75
2021/12/01 08:46:00;;;;;;;1.65;0.93;;;6.20;99.90;;;;;;5055513;28;20025;-76
2021/12/01 08:48:27;;;;;;;0.98;0.82;;;6.30;99.90;;;;;;5060091;28;20029;-75
2021/12/01 08:50:56;;;;;;;2.08;0.93;;;6.30;99.90;;;;;;5056177;28;20028;-76
2021/12/01 08:53:23;;;;;;;1.05;0.80;;;6.30;99.90;;;;;;5037295;28;20045;-75
2021/12/01 08:55:50;;;;;;;0.98;0.75;;;6.30;99.90;;;;;;5056181;28;20033;-76
2021/12/01 08:58:16;;;;;;;1.30;0.80;;;6.30;99.90;;;;;;5056561;28;20043;-75
2021/12/01 09:00:45;;;;;;;1.02;0.70;;;6.30;99.90;;;;;;5057733;28;20033;-76
2021/12/01 09:03:13;;;;;;;2.90;0.70;;;6.30;99.90;;;;;;5037146;28;20044;-76
2021/12/01 09:05:40;;;;;;;0.98;0.68;;;6.30;99.90;;;;;;5057588;28;20060;-78
2021/12/01 09:08:07;;;;;;;2.00;1.23;;;6.40;99.90;;;;;;5056352;28;20029;-76
2021/12/01 09:10:35;;;;;;;2.03;0.80;;;6.40;99.90;;;;;;5056251;28;20025;-76
2021/12/01 09:13:02;;;;;;;2.35;0.88;;;6.50;99.90;;;;;;5055172;28;20032;-75
2021/12/01 09:15:29;;;;;;;1.20;0.80;;;6.50;99.90;;;;;;5038872;28;20040;-76
2021/12/01 09:17:57;;;;;;;1.45;0.93;;;6.50;99.90;;;;;;5037570;28;20025;-75
2021/12/01 09:20:24;;;;;;;4.72;1.17;;;6.50;99.90;;;;;;5037034;28;20485;-75
2021/12/01 09:22:51;;;;;;;0.98;0.73;;;6.50;99.90;;;;;;5055705;28;20037;-75
2021/12/01 09:25:17;;;;;;;1.27;0.75;;;6.50;99.90;;;;;;5055149;28;20481;-76
2021/12/01 09:27:45;;;;;;;1.08;0.77;;;6.60;99.90;;;;;;5056230;28;20039;-75
2021/12/01 09:30:14;;;;;;;0.98;0.60;;;6.60;99.90;;;;;;5055041;28;20378;-76
2021/12/01 09:32:41;;;;;;;0.50;0.50;;;6.70;99.90;;;;;;5054621;28;20045;-76
2021/12/01 09:35:09;;;;;;;3.55;1.10;;;6.70;99.90;;;;;;5054614;28;20040;-75
2021/12/01 09:37:36;;;;;;;1.33;0.63;;;6.80;99.90;;;;;;5038158;28;20028;-75
2021/12/01 09:40:13;;;;;;;0.77;0.60;;;6.80;99.90;;;;;;5057650;28;20029;-76
2021/12/01 09:42:51;;;;;;;0.60;0.50;;;6.80;99.90;;;;;;5055834;28;20037;-75
2021/12/01 09:45:20;;;;;;;5.05;0.75;;;6.80;99.90;;;;;;5054318;28;20029;-76
2021/12/01 09:47:48;;;;;;;3.05;0.43;;;6.90;99.90;;;;;;5036768;28;20481;-76
2021/12/01 09:50:15;;;;;;;1.25;0.77;;;7.00;99.90;;;;;;5054421;28;20037;-75
2021/12/01 09:52:41;;;;;;;0.95;0.65;;;7.00;99.90;;;;;;5037358;28;20052;-76
2021/12/01 09:55:12;;;;;;;0.93;0.60;;;7.10;99.90;;;;;;5053819;28;20056;-75
2021/12/01 09:57:51;;;;;;;0.68;0.57;;;7.10;99.90;;;;;;5055115;28;20036;-76
2021/12/01 10:00:17;;;;;;;4.95;0.50;;;7.20;99.90;;;;;;5054172;28;20029;-76
2021/12/01 10:02:43;;;;;;;0.40;0.40;;;7.20;99.90;;;;;;5054818;28;20382;-75
2021/12/01 10:05:09;;;;;;;0.63;0.50;;;7.30;99.90;;;;;;5054380;28;20033;-76
2021/12/01 10:07:36;;;;;;;0.93;0.63;;;7.40;99.90;;;;;;5054613;28;20032;-76
2021/12/01 10:10:12;;;;;;;1.30;0.60;;;7.50;99.90;;;;;;5053822;28;20140;-76
2021/12/01 10:12:50;;;;;;;0.60;0.50;;;7.60;99.90;;;;;;5054141;28;20049;-76
2021/12/01 10:15:31;;;;;;;0.65;0.55;;;7.70;99.90;;;;;;5035937;28;20036;-76
2021/12/01 10:18:14;;;;;;;0.57;0.50;;;7.80;99.90;;;;;;5054202;28;20410;-75
2021/12/01 10:20:43;;;;;;;1.88;0.60;;;7.90;99.90;;;;;;5053964;28;20037;-74
2021/12/01 10:23:14;;;;;;;1.33;0.40;;;8.00;99.90;;;;;;5035398;28;20063;-74
2021/12/01 10:25:44;;;;;;;1.60;0.47;;;8.00;99.90;;;;;;5036038;28;20056;-74
2021/12/01 10:28:32;;;;;;;0.30;0.30;;;8.00;99.90;;;;;;5053521;28;20029;-75
2021/12/01 10:30:59;;;;;;;0.40;0.40;;;8.10;99.90;;;;;;5035927;28;20041;-75
2021/12/01 10:33:28;;;;;;;1.05;0.50;;;8.20;99.90;;;;;;5056701;28;20037;-75
2021/12/01 10:35:56;;;;;;;0.82;0.65;;;8.10;99.90;;;;;;5053929;28;20044;-75
2021/12/01 10:38:32;;;;;;;1.10;0.45;;;8.10;99.90;;;;;;5053109;28;20367;-75
2021/12/01 10:41:08;;;;;;;0.50;0.50;;;8.10;99.90;;;;;;5036044;28;20040;-74
2021/12/01 10:43:41;;;;;;;1.60;0.60;;;8.10;99.90;;;;;;5053745;28;20037;-75
2021/12/01 10:46:10;;;;;;;1.02;0.60;;;8.10;99.90;;;;;;5052913;28;20044;-75
2021/12/01 10:48:36;;;;;;;1.10;0.50;;;8.00;99.90;;;;;;5035977;28;20040;-75
2021/12/01 10:51:03;;;;;;;1.23;0.60;;;8.10;99.90;;;;;;5053698;28;20033;-76
2021/12/01 10:53:30;;;;;;;0.95;0.47;;;8.10;99.90;;;;;;5019596;28;20052;-75
2021/12/01 10:56:00;;;;;;;0.45;0.45;;;8.10;99.90;;;;;;5052772;28;20045;-75
2021/12/01 10:58:38;;;;;;;0.60;0.40;;;8.10;99.90;;;;;;5052828;28;20041;-77
2021/12/01 11:01:20;;;;;;;0.65;0.50;;;8.10;99.90;;;;;;5053329;28;20485;-77
2021/12/01 11:03:47;;;;;;;1.63;0.50;;;8.10;99.90;;;;;;5053289;28;20029;-74
2021/12/01 11:06:20;;;;;;;0.70;0.50;;;8.20;99.90;;;;;;5052093;28;20040;-75
2021/12/01 11:08:58;;;;;;;2.80;0.98;;;8.20;99.90;;;;;;5053634;28;20040;-75
2021/12/01 11:11:34;;;;;;;12.50;0.95;;;8.30;99.90;;;;;;5052634;28;20037;-76
2021/12/01 11:14:12;;;;;;;2.17;0.77;;;8.20;99.90;;;;;;5053221;28;20470;-75
2021/12/01 11:16:40;;;;;;;1.35;0.70;;;8.20;99.90;;;;;;5053294;28;20037;-75
2021/12/01 11:19:08;;;;;;;0.32;0.30;;;8.20;99.90;;;;;;5052589;28;20037;-75
2021/12/01 11:21:35;;;;;;;1.00;0.70;;;8.20;99.90;;;;;;5053017;28;20025;-76
2021/12/01 11:24:06;;;;;;;1.05;0.50;;;8.10;99.90;;;;;;5052586;28;20036;-75
2021/12/01 11:26:34;;;;;;;1.33;0.85;;;8.10;99.90;;;;;;5038591;28;20029;-75
2021/12/01 11:29:09;;;;;;;1.00;0.70;;;8.10;99.90;;;;;;5052821;28;20028;-75
2021/12/01 11:31:44;;;;;;;1.65;0.80;;;8.10;99.90;;;;;;5051743;28;20068;-77
2021/12/01 11:34:14;;;;;;;0.82;0.60;;;8.10;99.90;;;;;;5050972;28;20040;-75
2021/12/01 11:36:43;;;;;;;1.60;0.65;;;8.10;99.90;;;;;;5052776;28;20032;-75
2021/12/01 11:39:18;;;;;;;2.90;0.73;;;8.10;99.90;;;;;;5051902;28;20381;-76
2021/12/01 11:41:46;;;;;;;1.45;0.63;;;8.10;99.90;;;;;;5052676;28;20025;-75
2021/12/01 11:44:14;;;;;;;0.80;0.50;;;8.20;99.90;;;;;;5033963;28;20029;-76
2021/12/01 11:46:41;;;;;;;1.05;0.68;;;8.20;99.90;;;;;;5052419;28;20029;-75
2021/12/01 11:49:13;;;;;;;0.52;0.50;;;8.30;99.90;;;;;;5052306;28;20029;-75
2021/12/01 11:51:47;;;;;;;0.85;0.40;;;8.30;99.90;;;;;;5052526;28;20426;-74
2021/12/01 11:54:22;;;;;;;0.77;0.30;;;8.20;99.90;;;;;;5053441;28;20044;-75
2021/12/01 11:56:57;;;;;;;2.47;0.80;;;8.20;99.90;;;;;;5067464;28;20040;-75
2021/12/01 11:59:25;;;;;;;1.83;0.52;;;8.20;99.90;;;;;;5054218;28;20044;-76
2021/12/01 12:02:00;;;;;;;0.35;0.30;;;8.20;99.90;;;;;;5063604;28;20033;-75
2021/12/01 12:04:46;;;;;;;0.65;0.40;;;8.20;99.90;;;;;;5052130;28;20052;-74
2021/12/01 12:07:26;;;;;;;0.40;0.20;;;8.20;99.90;;;;;;5034325;28;20033;-75
2021/12/01 12:10:12;;;;;;;0.60;0.40;;;8.20;99.90;;;;;;5052238;28;20468;-75
2021/12/01 12:13:02;;;;;;;0.40;0.30;;;8.20;99.90;;;;;;5052244;28;20048;-74
2021/12/01 12:15:41;;;;;;;2.00;0.57;;;8.20;99.90;;;;;;5033517;28;20060;-74
2021/12/01 12:18:32;;;;;;;1.27;0.40;;;8.20;99.90;;;;;;5035687;28;20033;-73
2021/12/01 12:24:14;;;;;;;1.42;0.52;;;8.20;99.90;;;;;;5010118;28;20048;-76
2021/12/01 12:26:48;;;;;;;1.90;0.40;;;8.20;99.90;;;;;;5051993;28;20029;-75
2021/12/01 12:29:20;;;;;;;1.75;0.68;;;8.30;99.90;;;;;;5051625;28;20040;-76
2021/12/01 12:31:48;;;;;;;4.88;1.00;;;8.30;99.90;;;;;;5051817;28;20053;-76
2021/12/01 12:34:21;;;;;;;7.93;6.07;;;8.30;99.90;;;;;;5060326;28;20037;-76
2021/12/01 12:36:54;;;;;;;40.60;30.35;;;8.30;99.90;;;;;;5073478;28;20051;-76
2021/12/01 12:39:24;;;;;;;18.58;13.88;;;8.30;99.90;;;;;;5071659;28;20032;-76
2021/12/01 12:42:04;;;;;;;114.97;85.80;;;8.30;99.90;;;;;;5054133;28;20040;-76
2021/12/01 12:44:46;;;;;;;16.15;7.40;;;8.30;99.90;;;;;;5066025;28;20036;-76
2021/12/01 12:47:26;;;;;;;10.85;7.15;;;8.30;99.90;;;;;;5051858;28;20036;-77
2021/12/01 12:50:02;;;;;;;31.73;20.55;;;8.30;99.90;;;;;;5052679;28;20039;-78
2021/12/01 12:52:37;;;;;;;13.00;8.68;;;8.20;99.90;;;;;;5054305;28;20049;-76
2021/12/01 12:55:15;;;;;;;9.68;7.80;;;8.20;99.90;;;;;;5062359;28;20128;-76
2021/12/01 12:57:47;;;;;;;2.60;1.80;;;8.20;99.90;;;;;;5063964;28;20033;-76
2021/12/01 13:00:32;;;;;;;2.40;2.00;;;8.20;99.90;;;;;;5058780;28;20450;-76
2021/12/01 13:03:21;;;;;;;1.67;1.33;;;8.20;99.90;;;;;;5055170;28;20037;-75
2021/12/01 13:05:53;;;;;;;3.97;1.23;;;8.20;99.90;;;;;;5040303;28;20049;-76
2021/12/01 13:08:28;;;;;;;0.75;0.60;;;8.20;99.90;;;;;;5051475;28;20390;-75
2021/12/01 13:11:03;;;;;;;0.90;0.60;;;8.20;99.90;;;;;;5053952;28;20032;-75
2021/12/01 13:13:34;;;;;;;2.30;1.73;;;8.20;99.90;;;;;;5053215;28;20049;-76